• Join FlightAware (Why Join?)
  • Login
  • US Flag 
05:51AM EDT


 

Airport Tracker/Info


-or-


 

Live Flight TrackerFlight Track Log ✈ UCA3596 ✈ 01-Jul-2014 ✈ KEWR - KBGM

Flight Track Log - Related Links

Times and Time Zones

All times are in EDT time to prevent confusion due to time zone crossing. See the UCA3596 flight status page for this flight to view local times or setup timezone preferences in your user account.

Time Position Orientation Groundspeed Altitude Reporting Facility
EDT Latitude Longitude Course Direction KTS MPH feet Rate Location/Type
09:52AM 40.6833 -74.2500 303° West 159 183 2,700  Level New York TRACON
09:53AM 40.7000 -74.2833 303° West 165 190 3,900 1,440 Climbing New York TRACON
09:54AM 40.7167 -74.3500 288° West 173 199 5,500 1,440 Climbing New York TRACON
09:55AM 40.7500 -74.3333 21° North 198 228 6,700 1,320 Climbing New York TRACON
09:56AM 40.8167 -74.3333 360° North 194 223 8,100 1,140 Climbing New York TRACON
09:57AM 40.8667 -74.3667 333° Northwest 206 237 9,000 480 Climbing New York TRACON
09:58AM 40.9189 -74.3847 345° North 250 288 9,000  Level New York Center
09:59AM 40.9825 -74.4103 343° North 271 312 9,000 120 Level New York Center
10:00AM 41.0483 -74.4386 342° North 276 318 9,300 780 Climbing New York Center
10:01AM 41.1203 -74.4700 342° North 253 291 10,600 1,140 Climbing New York Center
10:02AM 41.1739 -74.4894 345° North 236 272 11,600 900 Climbing New York Center
10:03AM 41.2328 -74.5369 329° Northwest 225 259 12,500 840 Climbing New York Center
10:04AM 41.2683 -74.5942 310° West 220 253 13,400 720 Climbing New York Center
10:05AM 41.3097 -74.6656 308° West 225 259 14,000 300 Climbing New York Center
10:06AM 41.3492 -74.7314 309° West 235 270 14,000  Level New York Center
10:07AM 41.3967 -74.8114 308° West 246 283 14,000  Level New York Center
10:08AM 41.4358 -74.8803 307° West 257 296 14,000  Level New York Center
10:09AM 41.4811 -74.9578 308° West 257 296 14,000  Level New York Center
10:10AM 41.5242 -75.0353 307° West 257 296 14,000  Level New York Center
10:11AM 41.5692 -75.1131 308° West 257 296 14,000  Level New York Center
10:12AM 41.6142 -75.1881 309° West 257 296 14,000  Level New York Center
10:13AM 41.6592 -75.2661 308° West 257 296 14,000 -120 Level New York Center
10:14AM 41.7042 -75.3442 308° West 257 296 13,800 -360 Descending New York Center
10:15AM 41.7511 -75.4222 309° West 257 296 13,300 -600 Descending New York Center
10:16AM 41.7978 -75.5036 308° West 263 303 12,700 -720 Descending New York Center
10:17AM 41.8425 -75.5847 307° West 268 308 11,900 -960 Descending New York Center
10:18AM 41.8894 -75.6578 311° West 268 308 10,800 -1,200 Descending New York Center
10:19AM 41.9606 -75.6964 338° Northwest 268 308 9,500 -1,260 Descending New York Center
10:20AM 42.0297 -75.7406 335° Northwest 268 308 8,300 -1,260 Descending New York Center
10:21AM 42.0903 -75.7844 332° Northwest 268 308 7,000 -1,380 Descending New York Center
10:22AM 42.1486 -75.8336 328° Northwest 255 293 5,600 -1,380 Descending New York Center
10:23AM 42.2006 -75.8850 324° Northwest 242 278 4,400 -1,140 Descending New York Center
10:24AM 42.2419 -75.9358 318° Northwest 222 255 3,400 -840 Descending New York Center
10:25AM 42.2628 -75.9853 300° West 182 209 2,700 -600 Descending New York Center
10:26AM 42.2408 -76.0086 218° Southwest 103 119 2,300 -300 Descending New York Center
10:27AM 42.2411 -76.0481 271° West 94 108 2,100 -240 Descending New York Center
10:32AM 42.2084 -75.9796 56° Northeast  Level Estimated
10:39AM 42.2084 -75.9796 North  Level Estimated